createdAt,value
2022-10-14T00:00:13.232Z,998.95
2022-10-14T00:01:13.582Z,998.92
2022-10-14T00:02:13.664Z,998.94
2022-10-14T00:03:13.880Z,998.94
2022-10-14T00:04:14.255Z,998.93
2022-10-14T00:05:13.548Z,998.92
2022-10-14T00:06:13.647Z,998.91
2022-10-14T00:07:13.987Z,998.91
2022-10-14T00:08:12.927Z,998.87
2022-10-14T00:09:13.242Z,998.89
2022-10-14T00:10:13.278Z,998.85
2022-10-14T00:11:13.140Z,998.85
2022-10-14T00:12:13.408Z,998.82
2022-10-14T00:13:13.612Z,998.79
2022-10-14T00:14:14.106Z,998.80
2022-10-14T00:15:13.204Z,998.76
2022-10-14T00:16:13.375Z,998.79
2022-10-14T00:17:13.451Z,998.81
2022-10-14T00:18:13.691Z,998.77
2022-10-14T00:19:13.976Z,998.72
2022-10-14T00:20:12.957Z,998.72
2022-10-14T00:21:12.991Z,998.68
2022-10-14T00:22:12.870Z,998.74
2022-10-14T00:23:14.030Z,998.73
2022-10-14T00:24:13.099Z,998.75
2022-10-14T00:25:12.989Z,998.72
2022-10-14T00:26:18.125Z,998.72
2022-10-14T00:27:12.942Z,998.73
2022-10-14T00:28:12.884Z,998.70
2022-10-14T00:29:13.802Z,998.74
2022-10-14T00:30:13.940Z,998.74
2022-10-14T00:31:12.886Z,998.72
2022-10-14T00:32:14.004Z,998.77
2022-10-14T00:33:13.273Z,998.75
2022-10-14T00:34:13.196Z,998.75
2022-10-14T00:35:13.126Z,998.78
2022-10-14T00:36:13.364Z,998.81
2022-10-14T00:37:13.392Z,998.80
2022-10-14T00:38:13.506Z,998.78
2022-10-14T00:39:13.412Z,998.83
2022-10-14T00:40:13.324Z,998.77
2022-10-14T00:41:13.615Z,998.81
2022-10-14T00:42:13.986Z,998.78
2022-10-14T00:43:13.004Z,998.75
2022-10-14T00:44:13.172Z,998.75
2022-10-14T00:45:13.133Z,998.74
2022-10-14T00:46:13.274Z,998.72
2022-10-14T00:47:13.651Z,998.71
2022-10-14T00:48:13.711Z,998.71
2022-10-14T00:49:14.109Z,998.72
2022-10-14T00:50:13.074Z,998.71
2022-10-14T00:51:13.099Z,998.67
2022-10-14T00:52:13.545Z,998.66
2022-10-14T00:53:13.679Z,998.64
2022-10-14T00:54:13.994Z,998.62
2022-10-14T00:55:12.889Z,998.61
2022-10-14T00:56:13.995Z,998.61
2022-10-14T00:57:12.953Z,998.63
2022-10-14T00:58:12.846Z,998.66
2022-10-14T00:59:13.796Z,998.68
2022-10-14T01:00:13.981Z,998.71
2022-10-14T01:01:12.950Z,998.72
2022-10-14T01:02:13.131Z,998.71
2022-10-14T01:03:13.265Z,998.71
2022-10-14T01:04:18.435Z,998.72
2022-10-14T01:05:13.767Z,998.73
2022-10-14T01:06:14.032Z,998.74
2022-10-14T01:07:13.559Z,998.74
2022-10-14T01:08:13.612Z,998.76
2022-10-14T01:09:13.630Z,998.78
2022-10-14T01:10:13.880Z,998.79
2022-10-14T01:11:13.975Z,998.79
2022-10-14T01:12:28.712Z,998.83
2022-10-14T01:13:13.861Z,998.80
2022-10-14T01:14:13.934Z,998.82
2022-10-14T01:15:13.076Z,998.81
2022-10-14T01:16:13.372Z,998.81
2022-10-14T01:17:13.280Z,998.84
2022-10-14T01:18:13.329Z,998.80
2022-10-14T01:19:13.272Z,998.86
2022-10-14T01:20:13.483Z,998.84
2022-10-14T01:21:13.899Z,998.84
2022-10-14T01:22:12.841Z,998.81
2022-10-14T01:23:12.846Z,998.78
2022-10-14T01:24:13.778Z,998.81
2022-10-14T01:25:13.711Z,998.77
2022-10-14T01:26:13.919Z,998.82
2022-10-14T01:27:13.138Z,998.77
2022-10-14T01:28:13.134Z,998.74
2022-10-14T01:29:13.265Z,998.74
2022-10-14T01:30:13.356Z,998.71
2022-10-14T01:31:13.333Z,998.76
2022-10-14T01:32:13.597Z,998.71
2022-10-14T01:33:13.834Z,998.71
2022-10-14T01:34:14.051Z,998.69
2022-10-14T01:35:12.979Z,998.69
2022-10-14T01:36:13.130Z,998.67
2022-10-14T01:37:13.589Z,998.68
2022-10-14T01:38:13.658Z,998.66
2022-10-14T01:39:13.684Z,998.65
2022-10-14T01:40:13.792Z,998.61
2022-10-14T01:41:14.077Z,998.63
2022-10-14T01:42:13.133Z,998.70
2022-10-14T01:43:13.122Z,998.64
2022-10-14T01:44:13.048Z,998.67
2022-10-14T01:45:12.906Z,998.62
2022-10-14T01:46:12.697Z,998.56
2022-10-14T01:47:14.475Z,998.55
2022-10-14T01:48:13.379Z,998.56
2022-10-14T01:49:13.439Z,998.53
2022-10-14T01:50:13.445Z,998.53
2022-10-14T01:51:13.467Z,998.51
2022-10-14T01:52:13.373Z,998.49
2022-10-14T01:53:13.358Z,998.48
2022-10-14T01:54:14.629Z,998.53
2022-10-14T01:55:13.567Z,998.53
2022-10-14T01:56:13.801Z,998.47
2022-10-14T01:57:13.652Z,998.48
2022-10-14T01:58:13.678Z,998.44
2022-10-14T01:59:13.616Z,998.48
2022-10-14T02:00:13.531Z,998.43
2022-10-14T02:01:13.544Z,998.45
2022-10-14T02:02:13.713Z,998.47
2022-10-14T02:03:14.028Z,998.43
2022-10-14T02:04:13.184Z,998.44
2022-10-14T02:05:13.077Z,998.43
2022-10-14T02:06:13.046Z,998.42
2022-10-14T02:07:13.296Z,998.39
2022-10-14T02:08:13.294Z,998.40
2022-10-14T02:09:13.256Z,998.37
2022-10-14T02:10:13.175Z,998.39
2022-10-14T02:11:13.455Z,998.38
2022-10-14T02:12:13.345Z,998.36
2022-10-14T02:13:13.281Z,998.40
2022-10-14T02:14:13.241Z,998.38
2022-10-14T02:15:13.139Z,998.39
2022-10-14T02:16:13.257Z,998.35
2022-10-14T02:17:13.163Z,998.33
2022-10-14T02:18:13.027Z,998.31
2022-10-14T02:19:13.076Z,998.31
2022-10-14T02:20:13.024Z,998.27
2022-10-14T02:21:12.927Z,998.23
2022-10-14T02:22:13.017Z,998.26
2022-10-14T02:23:12.916Z,998.27
2022-10-14T02:24:13.069Z,998.27
2022-10-14T02:25:13.109Z,998.26
2022-10-14T02:26:13.213Z,998.23
2022-10-14T02:27:13.167Z,998.22
2022-10-14T02:28:13.114Z,998.20
2022-10-14T02:29:13.188Z,998.20
2022-10-14T02:30:13.223Z,998.17
2022-10-14T02:31:13.196Z,998.17
2022-10-14T02:32:13.121Z,998.15
2022-10-14T02:33:13.210Z,998.15
2022-10-14T02:34:13.032Z,998.16
2022-10-14T02:35:13.135Z,998.15
2022-10-14T02:36:13.164Z,998.14
2022-10-14T02:37:13.588Z,998.15
2022-10-14T02:38:13.524Z,998.10
2022-10-14T02:39:13.453Z,998.12
2022-10-14T02:40:13.434Z,998.14
2022-10-14T02:41:13.381Z,998.12
2022-10-14T02:42:13.260Z,998.12
2022-10-14T02:43:13.355Z,998.06
2022-10-14T02:44:13.355Z,998.09
2022-10-14T02:45:13.465Z,998.06
2022-10-14T02:46:13.349Z,998.06
2022-10-14T02:47:13.229Z,998.04
2022-10-14T02:48:13.588Z,998.03
2022-10-14T02:49:13.818Z,998.00
2022-10-14T02:50:13.851Z,997.98
2022-10-14T02:51:13.812Z,997.96
2022-10-14T02:52:14.035Z,997.96
2022-10-14T02:53:13.039Z,997.93
2022-10-14T02:54:13.186Z,997.95
2022-10-14T02:55:13.101Z,997.94
2022-10-14T02:56:13.151Z,997.91
2022-10-14T02:57:13.274Z,997.90
2022-10-14T02:58:13.282Z,997.90
2022-10-14T02:59:13.248Z,997.91
2022-10-14T03:00:13.358Z,997.92
2022-10-14T03:01:13.685Z,997.89
2022-10-14T03:02:13.724Z,997.90
2022-10-14T03:03:13.787Z,997.88
2022-10-14T03:04:13.675Z,997.88
2022-10-14T03:05:13.651Z,997.86
2022-10-14T03:06:13.705Z,997.85
2022-10-14T03:07:13.665Z,997.82
2022-10-14T03:08:13.747Z,997.82
2022-10-14T03:09:13.738Z,997.83
2022-10-14T03:10:14.116Z,997.77
2022-10-14T03:11:13.001Z,997.81
2022-10-14T03:12:13.078Z,997.74
2022-10-14T03:13:12.938Z,997.74
2022-10-14T03:14:12.877Z,997.72
2022-10-14T03:15:13.703Z,997.73
2022-10-14T03:16:13.588Z,997.70
2022-10-14T03:17:13.452Z,997.72
2022-10-14T03:18:13.407Z,997.71
2022-10-14T03:19:13.775Z,997.72
2022-10-14T03:20:13.652Z,997.70
2022-10-14T03:21:13.506Z,997.65
2022-10-14T03:22:14.197Z,997.68
2022-10-14T03:23:13.539Z,997.65
2022-10-14T03:24:13.490Z,997.63
2022-10-14T03:25:13.556Z,997.62
2022-10-14T03:26:14.155Z,997.63
2022-10-14T03:27:13.364Z,997.63
2022-10-14T03:28:13.309Z,997.61
2022-10-14T03:29:13.420Z,997.66
2022-10-14T03:30:13.551Z,997.66
2022-10-14T03:31:14.021Z,997.62
2022-10-14T03:32:12.986Z,997.67
2022-10-14T03:33:14.994Z,997.64
2022-10-14T03:34:13.772Z,997.62
2022-10-14T03:35:13.886Z,997.63
2022-10-14T03:36:13.979Z,997.62
2022-10-14T03:37:12.961Z,997.61
2022-10-14T03:38:13.011Z,997.61
2022-10-14T03:39:12.893Z,997.59
2022-10-14T03:40:12.728Z,997.58
2022-10-14T03:41:13.693Z,997.58
2022-10-14T03:42:13.773Z,997.56
2022-10-14T03:43:13.808Z,997.51
2022-10-14T03:44:14.097Z,997.54
2022-10-14T03:45:13.099Z,997.56
2022-10-14T03:46:13.182Z,997.54
2022-10-14T03:47:13.191Z,997.56
2022-10-14T03:48:13.270Z,997.56
2022-10-14T03:49:13.214Z,997.55
2022-10-14T03:50:13.159Z,997.57
2022-10-14T03:51:13.337Z,997.55
2022-10-14T03:52:13.296Z,997.56
2022-10-14T03:53:13.194Z,997.57
2022-10-14T03:54:13.346Z,997.57
2022-10-14T03:55:13.264Z,997.54
2022-10-14T03:56:13.411Z,997.55
2022-10-14T03:57:13.512Z,997.55
2022-10-14T03:58:13.432Z,997.52
2022-10-14T03:59:13.433Z,997.51
2022-10-14T04:00:13.424Z,997.49
2022-10-14T04:01:13.637Z,997.50
2022-10-14T04:02:13.636Z,997.49
2022-10-14T04:03:13.648Z,997.50
2022-10-14T04:04:13.900Z,997.48
2022-10-14T04:05:12.853Z,997.51
2022-10-14T04:06:13.814Z,997.50
2022-10-14T04:07:13.828Z,997.54
2022-10-14T04:08:13.773Z,997.55
2022-10-14T04:09:13.719Z,997.53
2022-10-14T04:10:14.185Z,997.54
2022-10-14T04:11:13.446Z,997.51
2022-10-14T04:12:13.573Z,997.53
2022-10-14T04:13:13.588Z,997.53
2022-10-14T04:14:13.773Z,997.54
2022-10-14T04:15:13.684Z,997.49
2022-10-14T04:16:13.620Z,997.50
2022-10-14T04:17:13.766Z,997.50
2022-10-14T04:18:13.678Z,997.53
2022-10-14T04:19:13.612Z,997.52
2022-10-14T04:20:13.708Z,997.54
2022-10-14T04:21:13.652Z,997.54
2022-10-14T04:22:13.623Z,997.58
2022-10-14T04:23:13.899Z,997.51
2022-10-14T04:24:13.006Z,997.51
2022-10-14T04:25:13.496Z,997.53
2022-10-14T04:26:14.096Z,997.49
2022-10-14T04:27:13.421Z,997.46
2022-10-14T04:28:13.879Z,997.45
2022-10-14T04:29:12.892Z,997.46
2022-10-14T04:30:12.842Z,997.44
2022-10-14T04:31:14.067Z,997.45
2022-10-14T04:32:13.084Z,997.48
2022-10-14T04:33:13.129Z,997.48
2022-10-14T04:34:12.996Z,997.44
2022-10-14T04:35:12.957Z,997.46
2022-10-14T04:36:13.034Z,997.44
2022-10-14T04:37:13.789Z,997.44
2022-10-14T04:38:13.801Z,997.43
2022-10-14T04:39:13.632Z,997.41
2022-10-14T04:40:14.776Z,997.38
2022-10-14T04:41:13.677Z,997.36
2022-10-14T04:42:13.849Z,997.36
2022-10-14T04:43:13.770Z,997.38
2022-10-14T04:44:13.774Z,997.40
2022-10-14T04:45:13.872Z,997.36
2022-10-14T04:46:12.869Z,997.35
2022-10-14T04:47:13.863Z,997.33
2022-10-14T04:48:13.680Z,997.34
2022-10-14T04:49:13.669Z,997.38
2022-10-14T04:50:13.660Z,997.35
2022-10-14T04:51:14.259Z,997.32
2022-10-14T04:52:13.328Z,997.34
2022-10-14T04:53:14.137Z,997.36
2022-10-14T04:54:13.545Z,997.37
2022-10-14T04:55:13.613Z,997.39
2022-10-14T04:56:13.585Z,997.35
2022-10-14T04:57:13.588Z,997.33
2022-10-14T04:58:13.536Z,997.34
2022-10-14T04:59:13.517Z,997.34
2022-10-14T05:00:13.711Z,997.35
2022-10-14T05:01:13.699Z,997.35
2022-10-14T05:02:13.778Z,997.36
2022-10-14T05:03:13.935Z,997.34
2022-10-14T05:04:12.807Z,997.35
2022-10-14T05:05:13.718Z,997.37
2022-10-14T05:06:13.727Z,997.41
2022-10-14T05:07:13.917Z,997.39
2022-10-14T05:08:12.960Z,997.38
2022-10-14T05:09:13.331Z,997.37
2022-10-14T05:10:13.407Z,997.36
2022-10-14T05:11:13.416Z,997.37
2022-10-14T05:12:13.321Z,997.37
2022-10-14T05:13:13.441Z,997.34
2022-10-14T05:14:13.395Z,997.35
2022-10-14T05:15:13.505Z,997.38
2022-10-14T05:16:13.542Z,997.36
2022-10-14T05:17:13.654Z,997.36
2022-10-14T05:18:13.612Z,997.34
2022-10-14T05:19:13.493Z,997.31
2022-10-14T05:20:13.471Z,997.33
2022-10-14T05:21:13.616Z,997.32
2022-10-14T05:22:14.036Z,997.33
2022-10-14T05:23:13.160Z,997.31
2022-10-14T05:24:13.212Z,997.32
2022-10-14T05:25:13.229Z,997.29
2022-10-14T05:26:13.034Z,997.29
2022-10-14T05:27:13.274Z,997.28
2022-10-14T05:28:13.235Z,997.27
2022-10-14T05:29:13.245Z,997.27
2022-10-14T05:30:13.158Z,997.26
2022-10-14T05:31:13.058Z,997.28
2022-10-14T05:32:14.170Z,997.27
2022-10-14T05:33:13.062Z,997.24
2022-10-14T05:34:12.952Z,997.24
2022-10-14T05:35:13.304Z,997.22
2022-10-14T05:36:13.322Z,997.22
2022-10-14T05:37:13.307Z,997.22
2022-10-14T05:38:13.219Z,997.20
2022-10-14T05:39:14.475Z,997.20
2022-10-14T05:40:13.637Z,997.19
2022-10-14T05:41:13.705Z,997.19
2022-10-14T05:42:13.899Z,997.17
2022-10-14T05:43:13.333Z,997.17
2022-10-14T05:44:13.553Z,997.15
2022-10-14T05:45:13.627Z,997.13
2022-10-14T05:46:13.695Z,997.14
2022-10-14T05:47:13.666Z,997.08
2022-10-14T05:48:13.673Z,997.08
2022-10-14T05:49:13.818Z,997.08
2022-10-14T05:50:13.793Z,997.06
2022-10-14T05:51:13.835Z,997.05
2022-10-14T05:52:13.205Z,997.09
2022-10-14T05:53:13.549Z,997.09
2022-10-14T05:54:13.695Z,997.09
2022-10-14T05:55:13.775Z,997.06
2022-10-14T05:56:13.738Z,997.10
2022-10-14T05:57:13.930Z,997.08
2022-10-14T05:58:12.914Z,997.06
2022-10-14T05:59:13.107Z,997.07
2022-10-14T06:00:13.211Z,997.01
2022-10-14T06:01:13.170Z,996.97
2022-10-14T06:02:13.495Z,997.00
2022-10-14T06:03:13.511Z,997.00
2022-10-14T06:04:13.563Z,996.98
2022-10-14T06:05:13.550Z,996.98
2022-10-14T06:06:13.505Z,997.01
2022-10-14T06:07:13.505Z,996.99
2022-10-14T06:08:13.586Z,997.00
2022-10-14T06:09:14.104Z,996.96
2022-10-14T06:10:13.102Z,996.99
2022-10-14T06:11:13.078Z,996.98
2022-10-14T06:12:13.630Z,996.98
2022-10-14T06:13:13.713Z,996.98
2022-10-14T06:14:14.774Z,996.96
2022-10-14T06:15:13.725Z,996.97
2022-10-14T06:16:13.649Z,996.98
2022-10-14T06:17:13.852Z,996.96
2022-10-14T06:18:13.822Z,996.95
2022-10-14T06:19:13.972Z,996.90
2022-10-14T06:20:13.292Z,996.93
2022-10-14T06:21:13.256Z,996.89
2022-10-14T06:22:13.362Z,996.90
2022-10-14T06:23:13.568Z,996.91
2022-10-14T06:24:13.499Z,996.90
2022-10-14T06:25:13.402Z,996.91
2022-10-14T06:26:13.639Z,996.88
2022-10-14T06:27:13.610Z,996.87
2022-10-14T06:28:13.741Z,996.87
2022-10-14T06:29:14.125Z,996.89
2022-10-14T06:30:13.096Z,996.82
2022-10-14T06:31:12.990Z,996.87
2022-10-14T06:32:12.808Z,996.84
2022-10-14T06:33:14.815Z,996.84
2022-10-14T06:34:13.754Z,996.83
2022-10-14T06:35:13.662Z,996.82
2022-10-14T06:36:13.834Z,996.80
2022-10-14T06:37:13.772Z,996.76
2022-10-14T06:38:18.847Z,996.78
2022-10-14T06:39:14.231Z,996.76
2022-10-14T06:40:13.206Z,996.76
2022-10-14T06:41:13.117Z,996.73
2022-10-14T06:42:13.521Z,996.70
2022-10-14T06:43:13.340Z,996.73
2022-10-14T06:44:13.346Z,996.75
2022-10-14T06:45:13.416Z,996.72
2022-10-14T06:46:13.720Z,996.72
2022-10-14T06:47:13.992Z,996.72
2022-10-14T06:48:13.085Z,996.74
2022-10-14T06:49:13.086Z,996.68
2022-10-14T06:50:12.898Z,996.70
2022-10-14T06:51:12.749Z,996.67
2022-10-14T06:52:13.741Z,996.65
2022-10-14T06:53:13.742Z,996.65
2022-10-14T06:54:13.820Z,996.67
2022-10-14T06:55:13.946Z,996.65
2022-10-14T06:56:12.986Z,996.62
2022-10-14T06:57:12.890Z,996.60
2022-10-14T06:58:14.337Z,996.59
2022-10-14T06:59:13.575Z,996.59
2022-10-14T07:00:13.498Z,996.59
2022-10-14T07:01:13.456Z,996.61
2022-10-14T07:02:13.345Z,996.60
2022-10-14T07:03:13.266Z,996.60
2022-10-14T07:04:13.241Z,996.60
2022-10-14T07:05:13.281Z,996.64
2022-10-14T07:06:14.149Z,996.65
2022-10-14T07:07:13.104Z,996.62
2022-10-14T07:08:15.465Z,996.61
2022-10-14T07:09:12.789Z,996.60
2022-10-14T07:10:14.105Z,996.63
2022-10-14T07:11:13.079Z,996.60
2022-10-14T07:12:13.148Z,996.60
2022-10-14T07:13:13.120Z,996.59
2022-10-14T07:14:13.407Z,996.58
2022-10-14T07:15:13.885Z,996.61
2022-10-14T07:16:13.147Z,996.61
2022-10-14T07:17:13.097Z,996.61
2022-10-14T07:18:12.977Z,996.60
2022-10-14T07:19:12.910Z,996.62
2022-10-14T07:20:12.900Z,996.54
2022-10-14T07:21:12.751Z,996.57
2022-10-14T07:22:13.683Z,996.60
2022-10-14T07:23:13.716Z,996.58
2022-10-14T07:24:13.911Z,996.56
2022-10-14T07:25:12.867Z,996.57
2022-10-14T07:26:13.872Z,996.57
2022-10-14T07:27:13.724Z,996.56
2022-10-14T07:29:14.081Z,996.63
2022-10-14T07:30:15.270Z,996.59
2022-10-14T07:31:13.562Z,996.61
2022-10-14T07:32:13.657Z,996.59
2022-10-14T07:33:13.568Z,996.64
2022-10-14T07:34:13.693Z,996.64
2022-10-14T07:35:13.754Z,996.64
2022-10-14T07:36:15.116Z,996.62
2022-10-14T07:37:13.494Z,996.63
2022-10-14T07:38:18.577Z,996.60
2022-10-14T07:39:13.397Z,996.63
2022-10-14T07:40:13.507Z,996.61
2022-10-14T07:41:13.378Z,996.58
2022-10-14T07:42:13.623Z,996.55
2022-10-14T07:43:13.649Z,996.52
2022-10-14T07:44:13.623Z,996.50
2022-10-14T07:45:13.642Z,996.46
2022-10-14T07:46:18.871Z,996.47
2022-10-14T07:47:13.998Z,996.45
2022-10-14T07:48:12.825Z,996.42
2022-10-14T07:49:13.737Z,996.40
2022-10-14T07:50:13.594Z,996.39
2022-10-14T07:51:13.534Z,996.35
2022-10-14T07:52:14.065Z,996.41
2022-10-14T07:53:13.397Z,996.44
2022-10-14T07:54:13.473Z,996.48
2022-10-14T07:55:13.492Z,996.54
2022-10-14T07:56:13.653Z,996.51
2022-10-14T07:57:13.766Z,996.53
2022-10-14T07:58:14.071Z,996.51
2022-10-14T07:59:13.061Z,996.48
2022-10-14T08:01:13.032Z,996.43
2022-10-14T08:02:13.193Z,996.45
2022-10-14T08:03:13.157Z,996.44
2022-10-14T08:04:13.106Z,996.51
2022-10-14T08:05:37.642Z,996.55
2022-10-14T08:06:51.704Z,996.54
2022-10-14T08:07:47.130Z,996.52
2022-10-14T08:08:13.190Z,996.54
2022-10-14T08:09:13.233Z,996.56
2022-10-14T08:10:20.051Z,996.54
2022-10-14T08:11:13.346Z,996.51
2022-10-14T08:13:13.930Z,996.51
2022-10-14T08:14:12.978Z,996.51
2022-10-14T08:16:13.237Z,996.49
2022-10-14T08:17:13.140Z,996.47
2022-10-14T08:18:13.269Z,996.48
2022-10-14T08:19:14.780Z,996.46
2022-10-14T08:20:12.955Z,996.43
2022-10-14T08:21:28.928Z,996.44
2022-10-14T08:22:12.864Z,996.38
2022-10-14T08:23:32.280Z,996.40
2022-10-14T08:24:13.789Z,996.42
2022-10-14T08:25:13.768Z,996.43
2022-10-14T08:26:13.709Z,996.40
2022-10-14T08:27:13.619Z,996.41
2022-10-14T08:28:14.249Z,996.41
2022-10-14T08:29:13.641Z,996.43
2022-10-14T08:30:13.432Z,996.42
2022-10-14T08:31:13.364Z,996.46
2022-10-14T08:32:13.294Z,996.40
2022-10-14T08:33:13.120Z,996.40
2022-10-14T08:34:13.062Z,996.38
2022-10-14T08:35:13.159Z,996.35
2022-10-14T08:36:19.687Z,996.30
2022-10-14T08:37:36.065Z,996.31
2022-10-14T08:38:18.732Z,996.30
2022-10-14T08:39:13.866Z,996.32
2022-10-14T08:40:13.734Z,996.30
2022-10-14T08:41:14.287Z,996.21
2022-10-14T08:42:28.798Z,996.30
2022-10-14T08:43:13.699Z,996.34
2022-10-14T08:44:13.627Z,996.31
2022-10-14T08:45:13.501Z,996.31
2022-10-14T08:46:13.383Z,996.31
2022-10-14T08:47:13.276Z,996.32
2022-10-14T08:48:13.297Z,996.33
2022-10-14T08:49:13.217Z,996.33
2022-10-14T08:50:13.127Z,996.29
2022-10-14T08:51:13.303Z,996.32
2022-10-14T08:52:13.241Z,996.30
2022-10-14T08:53:13.111Z,996.31
2022-10-14T08:54:13.221Z,996.31
2022-10-14T08:55:13.098Z,996.35
2022-10-14T08:56:13.015Z,996.30
2022-10-14T08:57:13.205Z,996.27
2022-10-14T08:58:13.293Z,996.30
2022-10-14T08:59:13.594Z,996.29
2022-10-14T09:00:13.378Z,996.28
2022-10-14T09:01:13.570Z,996.30
2022-10-14T09:02:13.784Z,996.25
2022-10-14T09:03:13.773Z,996.28
2022-10-14T09:04:13.944Z,996.29
2022-10-14T09:05:12.841Z,996.21
2022-10-14T09:06:13.821Z,996.27
2022-10-14T09:07:13.941Z,996.24
2022-10-14T09:08:13.091Z,996.22
2022-10-14T09:09:13.155Z,996.22
2022-10-14T09:10:13.351Z,996.15
2022-10-14T09:11:13.680Z,996.11
2022-10-14T09:12:13.562Z,996.10
2022-10-14T09:13:13.575Z,996.10
2022-10-14T09:14:53.925Z,996.06
2022-10-14T09:15:13.055Z,996.08
2022-10-14T09:16:13.252Z,996.08
2022-10-14T09:17:19.315Z,996.07
2022-10-14T09:18:13.374Z,996.04
2022-10-14T09:19:13.399Z,996.03
2022-10-14T09:20:13.222Z,996.03
2022-10-14T09:21:22.686Z,995.92
2022-10-14T09:22:13.757Z,995.90
2022-10-14T09:23:54.216Z,995.87
2022-10-14T09:24:13.374Z,995.86
2022-10-14T09:25:13.345Z,995.87
2022-10-14T09:26:18.500Z,995.86
2022-10-14T09:27:13.692Z,995.86
2022-10-14T09:28:13.745Z,995.88
2022-10-14T09:29:15.139Z,995.89
2022-10-14T09:30:13.292Z,995.89
2022-10-14T09:31:13.873Z,995.93
2022-10-14T09:32:13.065Z,995.91
2022-10-14T09:33:13.019Z,995.95
2022-10-14T09:34:12.916Z,995.93
2022-10-14T09:35:12.869Z,995.95
2022-10-14T09:36:14.068Z,995.89
2022-10-14T09:37:13.364Z,995.84
2022-10-14T09:38:13.313Z,995.80
2022-10-14T09:39:13.317Z,995.82
2022-10-14T09:40:13.440Z,995.77
2022-10-14T09:41:13.319Z,995.80
2022-10-14T09:42:18.360Z,995.80
2022-10-14T09:43:40.670Z,995.84
2022-10-14T09:44:45.565Z,995.76
2022-10-14T09:45:13.872Z,995.80
2022-10-14T09:46:13.862Z,995.79
2022-10-14T09:47:14.089Z,995.78
2022-10-14T09:48:13.427Z,995.78
2022-10-14T09:49:14.036Z,995.83
2022-10-14T09:50:12.991Z,995.83
2022-10-14T09:51:14.171Z,995.83
2022-10-14T09:52:13.066Z,995.76
2022-10-14T09:53:14.134Z,995.82
2022-10-14T09:56:20.734Z,995.83
2022-10-14T09:58:17.972Z,995.82
2022-10-14T09:59:13.155Z,995.78
2022-10-14T10:00:13.235Z,995.74
2022-10-14T10:01:13.431Z,995.71
2022-10-14T10:02:14.251Z,995.74
2022-10-14T10:03:19.536Z,995.70
2022-10-14T10:04:13.562Z,995.69
2022-10-14T10:05:13.779Z,995.69
2022-10-14T10:06:13.967Z,995.68
2022-10-14T10:07:13.069Z,995.66
2022-10-14T10:08:12.979Z,995.66
2022-10-14T10:09:12.898Z,995.69
2022-10-14T10:10:12.967Z,995.67
2022-10-14T10:11:13.089Z,995.65
2022-10-14T10:12:13.173Z,995.66
2022-10-14T10:13:13.141Z,995.67
2022-10-14T10:14:13.566Z,995.62
2022-10-14T10:15:13.426Z,995.69
2022-10-14T10:16:13.791Z,995.67
2022-10-14T10:17:13.677Z,995.68
2022-10-14T10:18:14.014Z,995.64
2022-10-14T10:19:13.260Z,995.63
2022-10-14T10:20:13.326Z,995.62
2022-10-14T10:21:13.747Z,995.61
2022-10-14T10:22:13.926Z,995.65
2022-10-14T10:23:13.164Z,995.66
2022-10-14T10:24:13.226Z,995.65
2022-10-14T10:25:13.117Z,995.59
2022-10-14T10:26:13.250Z,995.61
2022-10-14T10:27:13.212Z,995.56
2022-10-14T10:28:13.068Z,995.57
2022-10-14T10:29:40.721Z,995.55
2022-10-14T10:30:13.733Z,995.53
2022-10-14T10:31:24.364Z,995.53
2022-10-14T10:32:31.910Z,995.52
2022-10-14T10:33:22.967Z,995.45
2022-10-14T10:34:13.375Z,995.47
2022-10-14T10:35:17.615Z,995.43
2022-10-14T10:36:13.731Z,995.42
2022-10-14T10:37:13.801Z,995.45
2022-10-14T10:38:15.133Z,995.42
2022-10-14T10:39:23.562Z,995.44
2022-10-14T10:40:31.674Z,995.46
2022-10-14T10:41:40.122Z,995.45
2022-10-14T10:42:13.386Z,995.42
2022-10-14T10:43:19.241Z,995.39
2022-10-14T10:44:13.423Z,995.36
2022-10-14T10:45:13.682Z,995.33
2022-10-14T10:47:13.445Z,995.28
2022-10-14T10:48:13.626Z,995.27
2022-10-14T10:50:13.611Z,995.23
2022-10-14T10:51:14.043Z,995.25
2022-10-14T10:52:16.168Z,995.20
2022-10-14T10:54:32.706Z,995.19
2022-10-14T10:55:14.045Z,995.16
2022-10-14T10:56:23.469Z,995.16
2022-10-14T10:57:13.899Z,995.17
2022-10-14T10:58:13.544Z,995.18
2022-10-14T10:59:26.197Z,995.15
2022-10-14T11:00:13.324Z,995.22
2022-10-14T11:01:13.577Z,995.24
2022-10-14T11:02:13.707Z,995.23
2022-10-14T11:03:13.988Z,995.24
2022-10-14T11:04:13.186Z,995.16
2022-10-14T11:05:13.065Z,995.20
2022-10-14T11:06:13.072Z,995.18
2022-10-14T11:07:56.906Z,995.10
2022-10-14T11:08:13.417Z,995.07
2022-10-14T11:09:19.078Z,995.08
2022-10-14T11:11:13.454Z,995.04
2022-10-14T11:13:13.016Z,995.03
2022-10-14T11:15:13.839Z,995.00
2022-10-14T11:16:13.994Z,995.02
2022-10-14T11:17:13.701Z,994.98
2022-10-14T11:18:14.259Z,994.94
2022-10-14T11:19:14.630Z,994.93
2022-10-14T11:20:20.134Z,994.89
2022-10-14T11:21:13.126Z,994.90
2022-10-14T11:22:13.299Z,994.92
2022-10-14T11:23:13.804Z,994.85
2022-10-14T11:24:30.621Z,994.83
2022-10-14T11:25:12.917Z,994.82
2022-10-14T11:26:13.012Z,994.80
2022-10-14T11:27:13.411Z,994.80
2022-10-14T11:28:13.321Z,994.80
2022-10-14T11:29:13.515Z,994.78
2022-10-14T11:30:13.868Z,994.77
2022-10-14T11:31:13.960Z,994.75
2022-10-14T11:32:13.503Z,994.74
2022-10-14T11:33:18.589Z,994.75
2022-10-14T11:34:13.794Z,994.77
2022-10-14T11:35:13.765Z,994.77
2022-10-14T11:36:14.070Z,994.77
2022-10-14T11:37:13.342Z,994.81
2022-10-14T11:38:13.767Z,994.78
2022-10-14T11:39:13.820Z,994.77
2022-10-14T11:40:14.292Z,994.75
2022-10-14T11:41:13.187Z,994.75
2022-10-14T11:42:13.292Z,994.78
2022-10-14T11:44:13.240Z,994.72
2022-10-14T11:45:16.068Z,994.72
2022-10-14T11:46:13.708Z,994.65
2022-10-14T11:47:14.027Z,994.66
2022-10-14T11:48:12.916Z,994.69
2022-10-14T11:49:12.890Z,994.66
2022-10-14T11:50:12.756Z,994.71
2022-10-14T11:51:13.840Z,994.68
2022-10-14T11:52:14.149Z,994.69
2022-10-14T11:53:13.337Z,994.67
2022-10-14T11:54:13.729Z,994.66
2022-10-14T11:55:14.767Z,994.66
2022-10-14T11:56:13.177Z,994.65
2022-10-14T11:57:13.274Z,994.66
2022-10-14T11:58:13.682Z,994.61
2022-10-14T11:59:13.992Z,994.61
2022-10-14T12:00:13.222Z,994.51
2022-10-14T12:01:13.547Z,994.56
2022-10-14T12:02:15.127Z,994.52
2022-10-14T12:04:18.714Z,994.58
2022-10-14T12:05:19.113Z,994.52
2022-10-14T12:06:13.221Z,994.49
2022-10-14T12:07:13.310Z,994.53
2022-10-14T12:08:13.861Z,994.49
2022-10-14T12:09:14.180Z,994.48
2022-10-14T12:10:13.673Z,994.44
2022-10-14T12:11:13.877Z,994.44
2022-10-14T12:12:13.969Z,994.43
2022-10-14T12:13:13.149Z,994.42
2022-10-14T12:14:13.431Z,994.40
2022-10-14T12:15:13.548Z,994.36
2022-10-14T12:16:13.815Z,994.36
2022-10-14T12:17:17.565Z,994.41
2022-10-14T12:18:13.606Z,994.43
2022-10-14T12:19:14.122Z,994.41
2022-10-14T12:20:13.472Z,994.39
2022-10-14T12:21:18.824Z,994.41
2022-10-14T12:23:29.638Z,994.38
2022-10-14T12:24:13.905Z,994.39
2022-10-14T12:25:13.019Z,994.36
2022-10-14T12:26:13.166Z,994.30
2022-10-14T12:27:13.738Z,994.28
2022-10-14T12:28:19.236Z,994.26
2022-10-14T12:29:29.747Z,994.24
2022-10-14T12:30:13.936Z,994.24
2022-10-14T12:31:13.984Z,994.25
2022-10-14T12:32:29.471Z,994.23
2022-10-14T12:33:14.086Z,994.26
2022-10-14T12:34:13.769Z,994.23
2022-10-14T12:35:13.838Z,994.23
2022-10-14T12:36:13.973Z,994.23
2022-10-14T12:37:13.194Z,994.22
2022-10-14T12:38:13.191Z,994.24
2022-10-14T12:39:18.443Z,994.21
2022-10-14T12:40:13.345Z,994.20
2022-10-14T12:41:13.469Z,994.21
2022-10-14T12:42:13.870Z,994.19
2022-10-14T12:43:14.746Z,994.13
2022-10-14T12:44:13.988Z,994.13